KCAE/CAE METAR and TAF weather

Enter ICAO airport designator
Station Type Date Time Source
KCAE METAR 2020/04/05 17:56 UTC NOAA

KCAE 051756Z VRB03KT 10SM FEW150 24/08 A3006 RMK AO2 SLP175 T02440083 10244 20122 58014


Station Type Date Time Source
KCAE Decoded METAR 2020/04/05 17:56 UTC NOAA

COLUMBIA METROPOLITAN AIRPORT , SC, United States (KCAE) 33-57N 081-07W 73M
Apr 05, 2020 - 01:56 PM EDT / 2020.04.05 1756 UTC
Wind: Variable at 3 MPH (3 KT):0
Visibility: 10 mile(s):0
Sky conditions: mostly clear
Temperature: 75.9 F (24.4 C)
Dew Point: 46.9 F (8.3 C)
Relative Humidity: 35%
Pressure (altimeter): 30.06 in. Hg (1017 hPa)
Pressure tendency: 0.04 inches (1.4 hPa) lower than three hours ago
ob: KCAE 051756Z VRB03KT 10SM FEW150 24/08 A3006 RMK AO2 SLP175 T02440083 10244 20122 58014
cycle: 18

Station Type Date Time Source
KCAE TAF 2020/04/05 18:22 UTC NOAA

TAF KCAE 051720Z 0518/0618 15006KT P6SM SCT100
FM060000 VRB03KT P6SM SCT100
FM061500 25005KT P6SM SCT250

Example: see airport list